Time;durP1;ratioP1;P1;durP2;ratioP2;P2;SDS_P1;SDS_P2;PMS_P1;PMS_P2;Temp;Humidity;BMP_temperature;BMP_pressure;BME280_temperature;BME280_humidity;BME280_pressure;Samples;Min_cycle;Max_cycle;Signal;HPM_P1;HPM_P2
2023/11/14 00:00:59;;;;;;;6.40;2.28;;;22.40;55.70;;;;;;10368192;28;20258;-47
2023/11/14 00:06:04;;;;;;;6.65;2.40;;;22.40;55.70;;;;;;10393312;28;20602;-44
2023/11/14 00:11:10;;;;;;;7.25;2.67;;;22.40;55.70;;;;;;10398049;28;20205;-50
2023/11/14 00:16:13;;;;;;;6.18;2.47;;;22.40;55.70;;;;;;10386372;28;20220;-45
2023/11/14 00:21:19;;;;;;;6.00;2.55;;;22.40;55.70;;;;;;10396615;28;20725;-44
2023/11/14 00:26:23;;;;;;;6.03;2.50;;;22.50;55.80;;;;;;10387390;28;20221;-44
2023/11/14 00:31:28;;;;;;;4.10;2.20;;;22.40;55.70;;;;;;10392714;28;20205;-44
2023/11/14 00:36:33;;;;;;;5.93;2.25;;;22.50;55.80;;;;;;10368825;28;20271;-44
2023/11/14 00:41:37;;;;;;;4.88;2.17;;;22.50;55.80;;;;;;10398826;28;20254;-45
2023/11/14 00:46:40;;;;;;;5.47;2.10;;;22.50;55.80;;;;;;10365780;28;20248;-45
2023/11/14 00:51:45;;;;;;;7.43;2.97;;;22.40;55.70;;;;;;10395547;28;20262;-45
2023/11/14 00:56:49;;;;;;;6.72;2.90;;;22.40;55.70;;;;;;10393959;28;20233;-43
2023/11/14 01:01:54;;;;;;;6.88;2.85;;;22.50;55.80;;;;;;10354720;28;20742;-47
2023/11/14 01:07:00;;;;;;;6.35;2.63;;;22.50;55.80;;;;;;10390478;28;20216;-44
2023/11/14 01:12:04;;;;;;;5.85;2.58;;;22.50;55.80;;;;;;10392605;28;20279;-44
2023/11/14 01:17:09;;;;;;;17.73;3.05;;;22.50;55.80;;;;;;10399539;28;20653;-48
2023/11/14 01:22:14;;;;;;;13.10;2.83;;;22.50;55.80;;;;;;10393924;28;20212;-44
2023/11/14 01:27:17;;;;;;;21.90;3.03;;;22.40;55.70;;;;;;10401629;28;20321;-44
2023/11/14 01:32:22;;;;;;;12.05;2.88;;;22.40;55.70;;;;;;10393824;28;20228;-44
2023/11/14 01:37:27;;;;;;;15.57;4.53;;;22.50;55.90;;;;;;10385725;28;20247;-47
2023/11/14 01:42:31;;;;;;;12.52;4.15;;;22.30;54.60;;;;;;10394671;28;20200;-44
2023/11/14 01:47:35;;;;;;;22.90;3.90;;;22.20;55.20;;;;;;10389757;28;20251;-42
2023/11/14 01:52:40;;;;;;;15.23;4.10;;;22.20;55.90;;;;;;10394463;28;20196;-47
2023/11/14 01:57:43;;;;;;;14.15;3.17;;;22.30;55.40;;;;;;10389832;28;20311;-43
2023/11/14 02:02:48;;;;;;;12.82;2.85;;;22.30;55.30;;;;;;10401958;28;20676;-46
2023/11/14 02:07:54;;;;;;;13.48;3.13;;;22.30;55.30;;;;;;10406915;28;20220;-44
2023/11/14 02:12:57;;;;;;;10.15;2.88;;;22.30;55.40;;;;;;10342526;28;20212;-46
2023/11/14 02:18:01;;;;;;;12.35;3.58;;;22.30;56.00;;;;;;10396048;28;20228;-46
2023/11/14 02:23:11;;;;;;;8.60;2.78;;;22.40;55.40;;;;;;10379862;28;20208;-47
2023/11/14 02:28:16;;;;;;;13.27;3.15;;;22.40;55.40;;;;;;10387605;28;20244;-46
2023/11/14 02:33:19;;;;;;;17.58;3.58;;;22.40;55.50;;;;;;10399788;28;20204;-46
2023/11/14 02:38:23;;;;;;;8.10;3.05;;;22.40;55.50;;;;;;10389120;28;20879;-47
2023/11/14 02:43:27;;;;;;;11.27;2.78;;;22.40;55.50;;;;;;10398141;28;20780;-45
2023/11/14 02:48:31;;;;;;;8.20;2.22;;;22.40;55.50;;;;;;10393437;28;20224;-45
2023/11/14 02:53:35;;;;;;;11.15;3.08;;;22.40;55.50;;;;;;10403312;28;20205;-44
2023/11/14 02:58:40;;;;;;;8.95;2.50;;;22.40;55.50;;;;;;10411740;28;20299;-46
2023/11/14 03:03:46;;;;;;;8.60;2.83;;;22.40;55.50;;;;;;10403260;28;20212;-46
2023/11/14 03:08:49;;;;;;;8.80;2.80;;;22.40;55.50;;;;;;10411185;28;20242;-46
2023/11/14 03:13:54;;;;;;;11.90;3.03;;;22.40;56.20;;;;;;10398490;28;20209;-48
2023/11/14 03:18:58;;;;;;;9.18;2.72;;;22.40;55.50;;;;;;10386857;28;20274;-42
2023/11/14 03:24:02;;;;;;;7.38;2.58;;;22.40;55.50;;;;;;10391672;28;20200;-50
2023/11/14 03:29:10;;;;;;;22.20;3.38;;;22.40;55.50;;;;;;10404817;28;20270;-44
2023/11/14 03:34:14;;;;;;;17.77;3.50;;;22.50;55.60;;;;;;10405395;28;20254;-46
2023/11/14 03:39:17;;;;;;;18.27;3.30;;;22.60;55.60;;;;;;10413212;28;20224;-49
2023/11/14 03:44:22;;;;;;;14.18;3.67;;;22.70;55.50;;;;;;10413082;28;20200;-48
2023/11/14 03:49:26;;;;;;;26.63;4.20;;;22.70;55.40;;;;;;10408846;28;20220;-50
2023/11/14 03:54:29;;;;;;;18.05;3.58;;;22.80;55.50;;;;;;10402856;28;20243;-47
2023/11/14 03:59:34;;;;;;;25.15;3.95;;;22.80;55.50;;;;;;10405341;28;20695;-44
2023/11/14 04:04:39;;;;;;;22.10;3.70;;;22.80;55.50;;;;;;10402324;28;20246;-46
2023/11/14 04:09:43;;;;;;;18.45;3.38;;;22.80;55.50;;;;;;10394069;28;20258;-45
2023/11/14 04:14:48;;;;;;;10.55;3.17;;;22.70;56.10;;;;;;10393661;28;20227;-52
2023/11/14 04:19:51;;;;;;;17.90;3.92;;;22.70;55.50;;;;;;10390252;28;20316;-46
2023/11/14 04:24:55;;;;;;;19.45;3.55;;;22.70;55.60;;;;;;10393628;28;20225;-52
2023/11/14 04:30:01;;;;;;;22.05;3.60;;;22.70;55.60;;;;;;10388772;28;20201;-47
2023/11/14 04:35:05;;;;;;;16.85;3.10;;;22.70;55.60;;;;;;10404571;28;20205;-45
2023/11/14 04:40:10;;;;;;;9.85;2.95;;;22.70;55.70;;;;;;10402991;28;20274;-54
2023/11/14 04:45:16;;;;;;;12.18;3.47;;;22.70;55.70;;;;;;10390423;28;20220;-55
2023/11/14 04:50:21;;;;;;;10.50;2.92;;;22.60;55.60;;;;;;10354886;23;20228;-47
2023/11/14 04:55:24;;;;;;;9.30;2.65;;;22.60;55.60;;;;;;10358441;28;20252;-48
2023/11/14 05:00:30;;;;;;;11.93;2.50;;;22.60;55.70;;;;;;10377993;28;20252;-46
2023/11/14 05:05:34;;;;;;;9.02;2.70;;;22.60;55.70;;;;;;10344945;28;20221;-48
2023/11/14 05:10:37;;;;;;;12.35;3.15;;;22.50;55.60;;;;;;10359278;28;20197;-44
2023/11/14 05:15:42;;;;;;;9.55;3.10;;;22.50;55.60;;;;;;10336764;28;20221;-46
2023/11/14 05:20:46;;;;;;;9.27;2.85;;;22.50;55.60;;;;;;10380650;28;20309;-50
2023/11/14 05:25:51;;;;;;;9.07;2.65;;;22.50;55.60;;;;;;10386017;28;20284;-45
2023/11/14 05:30:56;;;;;;;9.23;3.08;;;22.50;55.60;;;;;;10385679;28;20250;-51
2023/11/14 05:35:59;;;;;;;5.30;2.42;;;22.50;55.60;;;;;;10386489;28;20263;-51
2023/11/14 05:41:03;;;;;;;7.88;2.47;;;22.50;55.60;;;;;;10379491;28;20224;-48
2023/11/14 05:46:08;;;;;;;9.20;3.00;;;22.50;55.60;;;;;;10370135;28;20229;-47
2023/11/14 05:51:12;;;;;;;8.63;2.53;;;22.50;55.60;;;;;;10370677;28;20208;-44
2023/11/14 05:56:15;;;;;;;8.55;2.67;;;22.50;55.60;;;;;;10365149;28;20229;-48
2023/11/14 06:01:20;;;;;;;10.13;3.03;;;22.50;55.60;;;;;;10362051;28;20287;-45
2023/11/14 06:06:24;;;;;;;8.23;2.88;;;22.50;55.60;;;;;;10384305;28;20282;-45
2023/11/14 06:11:28;;;;;;;7.85;2.47;;;22.50;55.60;;;;;;10367503;28;20239;-54
2023/11/14 06:16:33;;;;;;;6.65;2.47;;;22.50;55.70;;;;;;10368645;28;20283;-49
2023/11/14 06:21:37;;;;;;;6.32;2.60;;;22.50;55.70;;;;;;10392266;28;20200;-47
2023/11/14 06:26:40;;;;;;;7.25;2.65;;;22.50;55.60;;;;;;10329701;28;20217;-45
2023/11/14 06:31:45;;;;;;;8.32;2.47;;;22.50;55.70;;;;;;10375354;28;20231;-48
2023/11/14 06:36:55;;;;;;;7.18;2.72;;;22.50;55.70;;;;;;10367628;28;20229;-44
2023/11/14 06:41:58;;;;;;;9.65;2.83;;;22.50;55.70;;;;;;10365135;28;20978;-46
2023/11/14 06:47:04;;;;;;;6.05;2.45;;;22.50;55.60;;;;;;10360219;28;20264;-44
2023/11/14 06:52:07;;;;;;;7.35;3.00;;;22.50;55.70;;;;;;10359592;28;20279;-45
2023/11/14 06:57:11;;;;;;;6.65;2.60;;;22.50;55.70;;;;;;10384065;28;20223;-48
2023/11/14 07:02:16;;;;;;;7.00;2.50;;;22.50;55.70;;;;;;10375336;28;20236;-45
2023/11/14 07:07:21;;;;;;;7.47;2.55;;;22.50;55.70;;;;;;10385116;28;20220;-46
2023/11/14 07:12:24;;;;;;;6.38;2.20;;;22.50;55.70;;;;;;10380902;28;20201;-50
2023/11/14 07:17:30;;;;;;;6.20;2.42;;;22.50;55.70;;;;;;10317095;28;20256;-48
2023/11/14 07:22:34;;;;;;;9.65;2.80;;;22.50;55.70;;;;;;10389069;28;20200;-50
2023/11/14 07:27:40;;;;;;;8.68;2.50;;;22.50;56.30;;;;;;10360689;28;20259;-48
2023/11/14 07:32:46;;;;;;;8.60;2.80;;;22.50;55.60;;;;;;10324550;28;20229;-47
2023/11/14 07:37:49;;;;;;;6.20;2.40;;;22.50;55.60;;;;;;10382749;28;20221;-43
2023/11/14 07:42:54;;;;;;;7.50;2.63;;;22.50;55.70;;;;;;10367393;28;20634;-46
2023/11/14 07:48:00;;;;;;;7.13;2.40;;;22.50;55.60;;;;;;10387141;28;20220;-43
2023/11/14 07:53:04;;;;;;;7.03;2.83;;;22.50;55.60;;;;;;10368344;28;20220;-45
2023/11/14 07:58:08;;;;;;;8.18;2.88;;;22.50;56.30;;;;;;10369300;28;20306;-47
2023/11/14 08:03:14;;;;;;;8.88;2.08;;;22.50;55.60;;;;;;10372549;28;20196;-45
2023/11/14 08:08:18;;;;;;;7.00;2.40;;;22.50;55.60;;;;;;10358032;28;20239;-46
2023/11/14 08:13:22;;;;;;;7.15;2.60;;;22.50;55.60;;;;;;10368036;28;20209;-44
2023/11/14 08:18:28;;;;;;;7.85;2.70;;;22.50;55.70;;;;;;10388633;28;20225;-45
2023/11/14 08:23:31;;;;;;;6.45;2.80;;;22.50;55.70;;;;;;10356176;28;20205;-47
2023/11/14 08:28:36;;;;;;;7.50;2.67;;;22.50;55.70;;;;;;10385777;28;20220;-46
2023/11/14 08:33:42;;;;;;;7.20;2.70;;;22.50;55.70;;;;;;10340339;28;20225;-46
2023/11/14 08:38:45;;;;;;;7.25;2.55;;;22.50;55.70;;;;;;10393693;28;20252;-45
2023/11/14 08:43:50;;;;;;;6.88;2.80;;;22.50;55.70;;;;;;10366912;28;20956;-43
2023/11/14 08:48:55;;;;;;;9.48;3.30;;;22.50;55.70;;;;;;10365731;28;20693;-49
2023/11/14 08:53:59;;;;;;;6.97;2.63;;;22.50;55.70;;;;;;10348914;28;20243;-45
2023/11/14 08:59:03;;;;;;;8.13;2.42;;;22.50;55.70;;;;;;10369905;28;20294;-46
2023/11/14 09:04:10;;;;;;;8.93;2.75;;;22.50;55.70;;;;;;10396494;28;20208;-44
2023/11/14 09:09:14;;;;;;;5.38;2.30;;;22.50;55.70;;;;;;10368872;28;20216;-46
2023/11/14 09:14:18;;;;;;;7.45;2.70;;;22.50;55.70;;;;;;10372635;28;20310;-49
2023/11/14 09:19:25;;;;;;;7.20;2.95;;;22.50;55.80;;;;;;10329787;28;20224;-54
2023/11/14 09:24:28;;;;;;;7.25;2.92;;;22.50;55.80;;;;;;10364137;28;20232;-47
2023/11/14 09:29:32;;;;;;;6.07;3.33;;;22.50;55.80;;;;;;10385534;28;20212;-49
2023/11/14 09:34:37;;;;;;;9.98;4.25;;;22.50;55.80;;;;;;10386427;28;20207;-49
2023/11/14 09:39:42;;;;;;;8.27;4.05;;;22.50;55.80;;;;;;10395779;28;20754;-46
2023/11/14 09:44:46;;;;;;;8.43;4.63;;;22.50;55.80;;;;;;10385350;28;20701;-48
2023/11/14 09:49:51;;;;;;;10.07;4.63;;;22.50;55.80;;;;;;10390176;28;20297;-45
2023/11/14 09:54:55;;;;;;;8.38;4.95;;;22.50;55.80;;;;;;10375998;28;20323;-45
2023/11/14 10:00:00;;;;;;;12.52;5.20;;;22.50;55.80;;;;;;10364780;28;20602;-45
2023/11/14 10:05:08;;;;;;;7.88;4.88;;;22.50;55.90;;;;;;10375899;28;20257;-46
2023/11/14 10:10:19;;;;;;;9.35;4.95;;;22.50;55.80;;;;;;10384738;28;20581;-46
2023/11/14 10:15:30;;;;;;;11.75;4.90;;;22.50;55.90;;;;;;10405523;28;20232;-47
2023/11/14 10:20:41;;;;;;;8.50;5.07;;;22.50;55.90;;;;;;10393513;28;20220;-44
2023/11/14 10:25:51;;;;;;;8.75;4.68;;;22.50;55.90;;;;;;10370730;28;20223;-51
2023/11/14 10:30:56;;;;;;;10.13;4.55;;;22.50;55.90;;;;;;10397003;28;20196;-46
2023/11/14 10:36:23;;;;;;;11.32;5.28;;;22.50;55.90;;;;;;10360225;28;20661;-53
2023/11/14 10:41:30;;;;;;;10.02;4.55;;;22.50;55.90;;;;;;10342407;28;20266;-48
2023/11/14 10:46:34;;;;;;;9.57;4.30;;;22.50;56.50;;;;;;10366826;28;20246;-46
2023/11/14 10:51:41;;;;;;;7.15;3.90;;;22.50;55.90;;;;;;10385136;28;20235;-45
2023/11/14 10:56:50;;;;;;;9.68;5.15;;;22.50;55.90;;;;;;10386534;28;20228;-53
2023/11/14 11:02:01;;;;;;;6.68;4.05;;;22.50;55.90;;;;;;10394224;28;20260;-45
2023/11/14 11:07:06;;;;;;;10.30;4.70;;;22.50;55.90;;;;;;10396564;28;20225;-48
2023/11/14 11:12:11;;;;;;;8.60;4.22;;;22.50;55.90;;;;;;10385601;28;20208;-45
2023/11/14 11:17:38;;;;;;;6.45;4.00;;;22.50;55.90;;;;;;10359849;28;20242;-49
2023/11/14 11:23:08;;;;;;;6.60;4.28;;;22.50;55.90;;;;;;10390308;28;20274;-46
2023/11/14 11:28:32;;;;;;;7.10;3.92;;;22.50;55.90;;;;;;10365646;28;20780;-46
2023/11/14 11:33:40;;;;;;;8.50;3.83;;;22.50;56.00;;;;;;10385818;28;20192;-48
2023/11/14 11:38:54;;;;;;;8.30;3.95;;;22.50;56.40;;;;;;10396807;28;20224;-46
2023/11/14 11:44:08;;;;;;;6.95;3.45;;;22.50;55.90;;;;;;10370343;28;20625;-47
2023/11/14 11:49:31;;;;;;;7.68;3.70;;;22.50;55.90;;;;;;10376878;28;20276;-55
2023/11/14 11:54:37;;;;;;;7.50;3.60;;;22.50;55.90;;;;;;10401263;28;20204;-46
2023/11/14 12:00:17;;;;;;;5.90;3.70;;;22.50;55.90;;;;;;10394287;28;20219;-47
2023/11/14 12:05:23;;;;;;;7.32;3.28;;;22.50;56.00;;;;;;10365803;28;20705;-47
2023/11/14 12:10:29;;;;;;;6.55;3.60;;;22.50;55.90;;;;;;10389184;28;20578;-44
2023/11/14 12:15:33;;;;;;;7.05;3.35;;;22.50;55.90;;;;;;10399922;28;20279;-47
2023/11/14 12:20:36;;;;;;;7.57;3.78;;;22.50;55.90;;;;;;10372172;28;20251;-47
2023/11/14 12:25:41;;;;;;;8.38;3.63;;;22.50;55.90;;;;;;10385154;28;20591;-44
2023/11/14 12:31:01;;;;;;;7.55;3.80;;;22.50;55.90;;;;;;10373431;28;20681;-45
2023/11/14 12:36:05;;;;;;;6.82;3.45;;;22.50;56.00;;;;;;10380418;28;20225;-48
2023/11/14 12:41:25;;;;;;;6.50;3.08;;;22.50;55.90;;;;;;10396811;28;20770;-45
2023/11/14 12:46:31;;;;;;;7.82;3.20;;;22.50;55.90;;;;;;10379874;28;20253;-47
2023/11/14 12:51:36;;;;;;;5.93;3.17;;;22.50;55.90;;;;;;10403285;28;20624;-45
2023/11/14 12:56:40;;;;;;;6.95;2.72;;;22.50;55.90;;;;;;10368614;28;20247;-44
2023/11/14 13:01:46;;;;;;;5.38;2.90;;;22.50;55.90;;;;;;10338487;28;20782;-46
2023/11/14 13:06:50;;;;;;;5.32;2.88;;;22.50;55.90;;;;;;10380526;28;20275;-46
2023/11/14 13:11:55;;;;;;;6.78;2.92;;;22.50;55.90;;;;;;10386415;28;20233;-46
2023/11/14 13:16:59;;;;;;;7.55;2.83;;;22.50;55.90;;;;;;10366705;28;20220;-47
2023/11/14 13:22:02;;;;;;;6.22;2.80;;;22.50;55.90;;;;;;10356597;28;20256;-46
2023/11/14 13:27:07;;;;;;;4.57;2.35;;;22.50;55.90;;;;;;10363927;28;20229;-44
2023/11/14 13:32:12;;;;;;;6.97;2.88;;;22.50;55.90;;;;;;10360062;28;20287;-54
2023/11/14 13:37:16;;;;;;;6.80;2.63;;;22.50;55.90;;;;;;10360813;28;20213;-48
2023/11/14 13:42:21;;;;;;;4.43;2.45;;;22.50;55.90;;;;;;10376093;28;20305;-48
2023/11/14 13:47:24;;;;;;;6.68;2.78;;;22.50;55.90;;;;;;10346163;28;20256;-48
2023/11/14 13:52:28;;;;;;;5.70;2.40;;;22.50;55.90;;;;;;10377119;28;20228;-45
2023/11/14 13:57:33;;;;;;;5.47;2.58;;;22.50;55.90;;;;;;10388588;28;20224;-50
2023/11/14 14:02:36;;;;;;;4.88;2.38;;;22.50;55.90;;;;;;10359528;28;20247;-45
2023/11/14 14:07:44;;;;;;;16.48;3.30;;;22.50;55.90;;;;;;10386110;28;20220;-46
2023/11/14 14:12:49;;;;;;;14.68;2.85;;;22.50;56.60;;;;;;10377029;28;20244;-45
2023/11/14 14:17:53;;;;;;;18.40;3.55;;;22.50;56.00;;;;;;10373909;28;20220;-46
2023/11/14 14:22:57;;;;;;;7.82;2.70;;;22.50;55.90;;;;;;10380598;28;20773;-45
2023/11/14 14:28:02;;;;;;;10.50;2.42;;;22.50;55.90;;;;;;10384772;28;20278;-47
2023/11/14 14:33:06;;;;;;;9.02;2.45;;;22.50;55.90;;;;;;10389776;28;20244;-47
2023/11/14 14:38:10;;;;;;;9.70;2.20;;;22.50;55.90;;;;;;10392521;28;20661;-48
2023/11/14 14:43:15;;;;;;;8.45;2.45;;;22.50;55.90;;;;;;10360079;28;20303;-47
2023/11/14 14:48:19;;;;;;;5.97;2.22;;;22.50;56.00;;;;;;10365671;28;20767;-44
2023/11/14 14:53:23;;;;;;;9.57;2.38;;;22.50;55.90;;;;;;10377012;28;20219;-47
2023/11/14 14:58:30;;;;;;;4.93;2.10;;;22.50;56.00;;;;;;10366615;28;20248;-48
2023/11/14 15:03:34;;;;;;;8.07;2.65;;;22.50;56.00;;;;;;10369884;28;20240;-45
2023/11/14 15:08:39;;;;;;;8.35;2.72;;;22.50;56.00;;;;;;10379558;28;20310;-47
2023/11/14 15:13:47;;;;;;;5.55;2.45;;;22.50;56.70;;;;;;10368816;28;20742;-45
2023/11/14 15:18:50;;;;;;;4.93;2.30;;;22.50;56.00;;;;;;10369996;28;20736;-44
2023/11/14 15:23:54;;;;;;;5.35;2.40;;;22.50;56.00;;;;;;10354714;28;20252;-44
2023/11/14 15:29:02;;;;;;;4.97;2.55;;;22.50;56.00;;;;;;10375283;28;20594;-47
2023/11/14 15:34:05;;;;;;;5.03;2.13;;;22.50;56.00;;;;;;10390836;28;20551;-44
2023/11/14 15:39:10;;;;;;;4.05;2.22;;;22.50;56.00;;;;;;10345822;28;20257;-47
2023/11/14 15:44:15;;;;;;;5.05;2.10;;;22.50;56.00;;;;;;10389195;28;20248;-51
2023/11/14 15:49:20;;;;;;;3.55;1.77;;;22.50;56.10;;;;;;10382643;28;20262;-46
2023/11/14 15:54:23;;;;;;;6.07;2.50;;;22.50;56.10;;;;;;10392607;28;20197;-47
2023/11/14 15:59:28;;;;;;;5.25;2.17;;;22.50;56.10;;;;;;10374429;28;20240;-47
2023/11/14 16:04:32;;;;;;;4.25;2.13;;;22.50;56.10;;;;;;10370171;28;20252;-46
2023/11/14 16:09:38;;;;;;;3.85;1.90;;;22.50;56.10;;;;;;10381254;28;20221;-48
2023/11/14 16:14:44;;;;;;;3.25;1.90;;;22.50;56.10;;;;;;10373858;28;20197;-45
2023/11/14 16:19:47;;;;;;;3.72;2.22;;;22.50;56.10;;;;;;10366908;28;20332;-46
2023/11/14 16:24:51;;;;;;;3.83;1.77;;;22.50;56.10;;;;;;10351584;28;20248;-46
2023/11/14 16:29:56;;;;;;;3.83;1.83;;;22.50;56.70;;;;;;10376282;28;20605;-48
2023/11/14 16:34:59;;;;;;;3.65;1.95;;;22.50;56.10;;;;;;10348021;28;20246;-47
2023/11/14 16:40:04;;;;;;;5.22;2.20;;;22.50;56.10;;;;;;10385418;28;20201;-47
2023/11/14 16:45:10;;;;;;;5.03;2.10;;;22.50;56.10;;;;;;10384503;28;20253;-48
2023/11/14 16:50:14;;;;;;;4.78;1.80;;;22.50;56.20;;;;;;10383798;28;20692;-45
2023/11/14 16:55:17;;;;;;;2.58;1.77;;;22.50;56.20;;;;;;10369292;28;20229;-46
2023/11/14 17:00:24;;;;;;;3.70;1.90;;;22.50;56.20;;;;;;10346110;28;20205;-48
2023/11/14 17:05:28;;;;;;;4.97;1.98;;;22.50;56.20;;;;;;10370696;28;20224;-47
2023/11/14 17:10:32;;;;;;;4.30;2.15;;;22.50;56.20;;;;;;10355756;28;20286;-45
2023/11/14 17:15:38;;;;;;;4.90;2.30;;;22.50;56.20;;;;;;10366652;28;20245;-47
2023/11/14 17:20:42;;;;;;;5.68;2.08;;;22.50;56.20;;;;;;10356176;28;20224;-48
2023/11/14 17:25:46;;;;;;;4.22;2.10;;;22.50;56.20;;;;;;10361233;28;20272;-46
2023/11/14 17:30:51;;;;;;;3.67;1.80;;;22.50;56.20;;;;;;10366323;28;20224;-46
2023/11/14 17:35:54;;;;;;;3.20;2.08;;;22.50;56.20;;;;;;10366509;28;20308;-47
2023/11/14 17:40:58;;;;;;;3.30;1.83;;;22.50;56.20;;;;;;10352321;28;20205;-49
2023/11/14 17:46:04;;;;;;;4.30;2.30;;;22.50;56.20;;;;;;10387037;28;20244;-47
2023/11/14 17:51:10;;;;;;;4.38;2.08;;;22.50;56.20;;;;;;10378684;28;20286;-48
2023/11/14 17:56:22;;;;;;;3.67;1.77;;;22.40;56.10;;;;;;10362024;28;20276;-44
2023/11/14 18:01:28;;;;;;;4.70;1.95;;;22.40;56.20;;;;;;10365521;28;20233;-46
2023/11/14 18:06:31;;;;;;;4.63;1.80;;;22.50;56.20;;;;;;10351338;28;21192;-50
2023/11/14 18:11:35;;;;;;;5.65;2.22;;;22.50;56.20;;;;;;10341674;28;20282;-48
2023/11/14 18:16:41;;;;;;;4.28;1.98;;;22.50;56.20;;;;;;10375506;28;20220;-45
2023/11/14 18:21:47;;;;;;;2.63;1.70;;;22.50;56.30;;;;;;10369573;28;20217;-48
2023/11/14 18:26:53;;;;;;;3.65;1.70;;;22.50;56.30;;;;;;10362470;28;20260;-47
2023/11/14 18:31:59;;;;;;;4.75;1.70;;;22.50;56.30;;;;;;10364641;28;20205;-47
2023/11/14 18:37:03;;;;;;;5.13;1.83;;;22.50;56.40;;;;;;10371849;28;20224;-59
2023/11/14 18:42:07;;;;;;;5.13;1.83;;;22.60;56.40;;;;;;10369382;28;20248;-45
2023/11/14 18:47:12;;;;;;;4.15;1.85;;;22.70;57.00;;;;;;10378249;28;20217;-45
2023/11/14 18:52:16;;;;;;;4.68;2.03;;;22.70;56.40;;;;;;10371467;28;20200;-44
2023/11/14 18:57:20;;;;;;;4.88;1.73;;;22.70;56.40;;;;;;10370467;28;20241;-45
2023/11/14 19:02:25;;;;;;;3.83;1.70;;;22.70;56.40;;;;;;10355006;28;20245;-44
2023/11/14 19:07:29;;;;;;;3.30;1.45;;;22.70;56.40;;;;;;10358490;28;20327;-44
2023/11/14 19:12:34;;;;;;;3.88;1.73;;;22.70;56.50;;;;;;10366110;28;20209;-43
2023/11/14 19:17:39;;;;;;;3.58;1.67;;;22.70;56.50;;;;;;10363008;28;20256;-48
2023/11/14 19:22:42;;;;;;;2.80;1.45;;;22.60;56.40;;;;;;10368340;28;20272;-44
2023/11/14 19:27:51;;;;;;;2.35;1.50;;;22.60;56.40;;;;;;10366200;28;20225;-44
2023/11/14 19:32:56;;;;;;;3.95;1.65;;;22.60;56.40;;;;;;10367238;28;20209;-46
2023/11/14 19:38:00;;;;;;;4.88;1.48;;;22.60;56.40;;;;;;10374074;28;20693;-47
2023/11/14 19:43:04;;;;;;;3.20;1.80;;;22.60;56.40;;;;;;10374674;28;20315;-46
2023/11/14 19:48:09;;;;;;;3.05;1.85;;;22.60;56.50;;;;;;10361459;28;20274;-44
2023/11/14 19:53:13;;;;;;;2.97;1.50;;;22.60;56.50;;;;;;10368639;28;20594;-49
2023/11/14 19:58:16;;;;;;;2.67;1.20;;;22.60;57.10;;;;;;10352805;28;20295;-48
2023/11/14 20:03:21;;;;;;;2.22;1.50;;;22.60;56.50;;;;;;10374778;28;20248;-44
2023/11/14 20:08:26;;;;;;;2.53;1.40;;;22.60;56.50;;;;;;10380150;28;20221;-45
2023/11/14 20:13:30;;;;;;;2.55;1.42;;;22.60;56.50;;;;;;10384721;28;20200;-42
2023/11/14 20:18:35;;;;;;;3.60;1.30;;;22.60;56.50;;;;;;10380034;28;20597;-45
2023/11/14 20:23:38;;;;;;;3.40;1.73;;;22.50;56.40;;;;;;10375844;28;20303;-44
2023/11/14 20:28:42;;;;;;;2.83;1.30;;;22.50;56.40;;;;;;10375982;28;20244;-46
2023/11/14 20:33:47;;;;;;;3.40;1.50;;;22.50;56.50;;;;;;10376011;28;20229;-45
2023/11/14 20:38:52;;;;;;;3.60;1.48;;;22.50;56.50;;;;;;10379339;28;20321;-44
2023/11/14 20:43:56;;;;;;;2.50;1.52;;;22.60;56.50;;;;;;10380325;28;20632;-46
2023/11/14 20:49:01;;;;;;;3.35;1.20;;;22.60;56.50;;;;;;10380468;28;20232;-44
2023/11/14 20:54:06;;;;;;;2.40;1.55;;;22.50;56.50;;;;;;10386834;28;20196;-48
2023/11/14 20:59:09;;;;;;;4.85;1.70;;;22.60;56.50;;;;;;10369776;28;20251;-46
2023/11/14 21:04:14;;;;;;;3.10;1.40;;;22.50;57.10;;;;;;10310933;28;20287;-45
2023/11/14 21:09:18;;;;;;;2.08;1.40;;;22.60;56.50;;;;;;10370209;28;20224;-44
2023/11/14 21:14:22;;;;;;;2.20;1.45;;;22.50;56.50;;;;;;10347279;28;20271;-44
2023/11/14 21:19:27;;;;;;;3.83;1.65;;;22.50;56.50;;;;;;10372035;28;20605;-44
2023/11/14 21:24:31;;;;;;;6.45;1.67;;;22.60;56.60;;;;;;10369722;28;20247;-44
2023/11/14 21:29:35;;;;;;;5.93;1.30;;;22.60;56.60;;;;;;10379898;28;20605;-43
2023/11/14 21:34:41;;;;;;;9.15;1.60;;;22.50;56.50;;;;;;10387809;28;20247;-46
2023/11/14 21:39:46;;;;;;;10.07;1.77;;;22.60;56.60;;;;;;10380441;28;20275;-43
2023/11/14 21:44:49;;;;;;;10.05;1.90;;;22.50;56.50;;;;;;10386859;28;20225;-44
2023/11/14 21:49:54;;;;;;;7.50;1.85;;;22.50;56.50;;;;;;10394422;28;20275;-44
2023/11/14 21:54:58;;;;;;;3.03;1.50;;;22.50;56.50;;;;;;10379280;28;20225;-44
2023/11/14 22:00:01;;;;;;;3.30;1.50;;;22.50;57.20;;;;;;10372496;28;20267;-43
2023/11/14 22:05:07;;;;;;;4.88;1.58;;;22.50;56.50;;;;;;10392876;28;20394;-44
2023/11/14 22:10:11;;;;;;;3.97;1.40;;;22.50;56.50;;;;;;10369144;28;20227;-45
2023/11/14 22:15:18;;;;;;;2.63;1.52;;;22.50;56.50;;;;;;10373579;28;20212;-43
2023/11/14 22:20:23;;;;;;;2.40;1.33;;;22.50;56.60;;;;;;10369961;28;20217;-47
2023/11/14 22:25:27;;;;;;;2.80;1.33;;;22.50;56.50;;;;;;10384054;28;20656;-45
2023/11/14 22:30:30;;;;;;;3.60;1.40;;;22.50;56.60;;;;;;10376883;28;20204;-44
2023/11/14 22:35:35;;;;;;;3.10;1.50;;;22.50;56.50;;;;;;10389553;28;20244;-45
2023/11/14 22:40:39;;;;;;;2.40;1.80;;;22.50;56.60;;;;;;10392788;28;20204;-45
2023/11/14 22:45:43;;;;;;;2.15;1.40;;;22.50;56.60;;;;;;10391614;28;20228;-45
2023/11/14 22:50:52;;;;;;;2.05;1.13;;;22.50;56.60;;;;;;10384053;28;20208;-46
2023/11/14 22:55:56;;;;;;;2.10;1.20;;;22.50;56.50;;;;;;10381879;28;20220;-48
2023/11/14 23:00:59;;;;;;;2.38;1.50;;;22.50;56.50;;;;;;10378100;28;20254;-44
2023/11/14 23:06:05;;;;;;;4.03;1.45;;;22.50;56.60;;;;;;10379684;28;20707;-45
2023/11/14 23:11:09;;;;;;;2.63;1.48;;;22.50;56.60;;;;;;10390050;28;20232;-46
2023/11/14 23:16:13;;;;;;;1.42;1.30;;;22.50;56.60;;;;;;10394080;28;20224;-46
2023/11/14 23:21:19;;;;;;;2.55;1.35;;;22.50;56.60;;;;;;10372729;28;20213;-46
2023/11/14 23:26:22;;;;;;;1.60;1.35;;;22.50;56.60;;;;;;10394949;28;20301;-44
2023/11/14 23:31:26;;;;;;;1.27;1.15;;;22.50;57.20;;;;;;10390793;28;20569;-43
2023/11/14 23:36:31;;;;;;;2.42;1.50;;;22.50;56.60;;;;;;10384368;28;20689;-45
2023/11/14 23:41:35;;;;;;;1.80;1.30;;;22.50;56.60;;;;;;10386552;28;20824;-43
2023/11/14 23:46:42;;;;;;;2.03;1.40;;;22.50;56.60;;;;;;10386941;28;20220;-57
2023/11/14 23:51:47;;;;;;;1.73;1.30;;;22.50;56.60;;;;;;10382455;28;20240;-45
2023/11/14 23:56:52;;;;;;;2.72;1.20;;;22.50;56.60;;;;;;10389775;28;20271;-44
